Time,TemperatureF,DewpointF,PressureIn,WindDirection,WindDirectionDegrees,WindSpeedMPH,WindSpeedGustMPH,Humidity,HourlyPrecipIn,Conditions,Clouds,dailyrainin,SoftwareType,DateUTC
2013-06-18 00:02:00,81.1,54.6,28.77,NE,45,0.0,0.0,40,0.00,,,0.00,open2300-1.11,2013-06-17 21:02:00,
2013-06-18 00:07:00,81.1,54.6,28.77,NE,45,0.0,0.0,40,0.00,,,0.00,open2300-1.11,2013-06-17 21:07:00,
2013-06-18 00:17:00,81.0,54.5,28.77,NE,45,0.0,0.0,40,0.00,,,0.00,open2300-1.11,2013-06-17 21:17:00,
2013-06-18 00:22:00,81.0,54.5,28.77,NE,45,0.0,0.0,40,0.00,,,0.00,open2300-1.11,2013-06-17 21:22:00,
2013-06-18 00:32:00,80.6,54.8,28.77,NE,45,0.0,0.0,41,0.00,,,0.00,open2300-1.11,2013-06-17 21:32:00,
2013-06-18 00:37:00,80.4,54.6,28.77,NNE,22,0.0,0.0,41,0.00,,,0.00,open2300-1.11,2013-06-17 21:37:00,
2013-06-18 00:47:00,80.4,54.6,28.77,NNE,22,0.0,0.0,41,0.00,,,0.00,open2300-1.11,2013-06-17 21:47:00,
2013-06-18 00:52:00,80.4,54.6,28.76,NE,45,0.0,0.0,41,0.00,,,0.00,open2300-1.11,2013-06-17 21:52:00,
2013-06-18 00:57:00,80.2,54.4,28.76,NE,45,0.0,0.0,41,0.00,,,0.00,open2300-1.11,2013-06-17 21:57:00,
2013-06-18 01:07:00,80.2,55.0,28.76,NE,45,0.0,0.0,42,0.00,,,0.00,open2300-1.11,2013-06-17 22:07:00,
2013-06-18 01:12:00,80.2,55.0,28.76,NE,45,0.0,0.0,42,0.00,,,0.00,open2300-1.11,2013-06-17 22:12:00,
2013-06-18 01:22:00,80.2,55.0,28.76,NE,45,0.0,0.0,42,0.00,,,0.00,open2300-1.11,2013-06-17 22:22:00,
2013-06-18 01:29:00,80.1,55.5,28.76,NE,45,0.0,0.0,43,0.00,,,0.00,open2300-1.11,2013-06-17 22:29:00,
2013-06-18 01:37:00,80.1,55.5,28.77,NE,45,0.0,0.0,43,0.00,,,0.00,open2300-1.11,2013-06-17 22:37:00,
2013-06-18 01:42:00,79.9,55.3,28.77,NE,45,0.0,0.0,43,0.00,,,0.00,open2300-1.11,2013-06-17 22:42:00,
2013-06-18 01:47:00,79.9,55.3,28.76,NE,45,0.0,0.0,43,0.00,,,0.00,open2300-1.11,2013-06-17 22:47:00,
2013-06-18 01:52:00,79.9,55.3,28.76,NE,45,0.0,0.0,43,0.00,,,0.00,open2300-1.11,2013-06-17 22:52:00,
2013-06-18 02:02:00,79.9,55.3,28.76,NNE,22,0.0,0.0,43,0.00,,,0.00,open2300-1.11,2013-06-17 23:02:00,
2013-06-18 02:07:00,79.9,55.3,28.76,NE,45,0.0,0.0,43,0.00,,,0.00,open2300-1.11,2013-06-17 23:07:00,
2013-06-18 02:17:00,79.9,55.3,28.76,NE,45,0.0,0.0,43,0.00,,,0.00,open2300-1.11,2013-06-17 23:17:00,
2013-06-18 02:22:00,79.7,55.2,28.76,NE,45,0.0,0.0,43,0.00,,,0.00,open2300-1.11,2013-06-17 23:22:00,
2013-06-18 02:32:00,79.7,55.2,28.76,NE,45,0.0,0.0,43,0.00,,,0.00,open2300-1.11,2013-06-17 23:32:00,
2013-06-18 02:37:00,79.5,55.0,28.76,NE,45,0.0,0.0,43,0.00,,,0.00,open2300-1.11,2013-06-17 23:37:00,
2013-06-18 02:42:00,79.5,55.6,28.76,NE,45,0.0,0.0,44,0.00,,,0.00,open2300-1.11,2013-06-17 23:42:00,
2013-06-18 02:52:00,79.3,55.5,28.76,NE,45,0.0,0.0,44,0.00,,,0.00,open2300-1.11,2013-06-17 23:52:00,
2013-06-18 02:57:00,79.3,55.5,28.76,NE,45,0.0,0.0,44,0.00,,,0.00,open2300-1.11,2013-06-17 23:57:00,
2013-06-18 03:07:00,79.3,56.1,28.75,NNE,22,0.0,0.0,45,0.00,,,0.00,open2300-1.11,2013-06-18 00:07:00,
2013-06-18 03:17:00,79.3,56.7,28.75,NE,45,0.0,0.0,46,0.00,,,0.00,open2300-1.11,2013-06-18 00:17:00,
2013-06-18 03:22:00,79.3,56.7,28.75,NNE,22,0.0,0.0,46,0.00,,,0.00,open2300-1.11,2013-06-18 00:22:00,
2013-06-18 03:27:00,79.3,56.7,28.75,NE,45,0.0,0.0,46,0.00,,,0.00,open2300-1.11,2013-06-18 00:27:00,
2013-06-18 03:32:00,79.3,56.7,28.75,NE,45,2.0,2.0,46,0.00,,,0.00,open2300-1.11,2013-06-18 00:32:00,
2013-06-18 03:42:00,79.3,57.3,28.75,NE,45,0.0,0.0,47,0.00,,,0.00,open2300-1.11,2013-06-18 00:42:00,
2013-06-18 03:47:00,79.3,57.3,28.75,NE,45,0.0,0.0,47,0.00,,,0.00,open2300-1.11,2013-06-18 00:47:00,
2013-06-18 03:57:00,79.3,57.3,28.75,NE,45,0.0,2.5,47,0.00,,,0.00,open2300-1.11,2013-06-18 00:57:00,
2013-06-18 04:07:00,79.2,57.1,28.75,NE,45,0.0,0.0,47,0.00,,,0.00,open2300-1.11,2013-06-18 01:07:00,
2013-06-18 04:12:00,79.2,57.1,28.75,NE,45,0.0,0.0,47,0.00,,,0.00,open2300-1.11,2013-06-18 01:12:00,
2013-06-18 04:17:00,79.2,57.1,28.75,NE,45,0.0,0.0,47,0.00,,,0.00,open2300-1.11,2013-06-18 01:17:00,
2013-06-18 04:22:00,79.0,57.0,28.75,NE,45,0.2,0.2,47,0.00,,,0.00,open2300-1.11,2013-06-18 01:22:00,
2013-06-18 04:27:00,79.0,57.0,28.75,NE,45,0.0,1.1,47,0.00,,,0.00,open2300-1.11,2013-06-18 01:27:00,
2013-06-18 04:32:00,79.0,57.0,28.75,NNE,22,0.0,0.0,47,0.00,,,0.00,open2300-1.11,2013-06-18 01:32:00,
2013-06-18 04:37:00,79.0,57.0,28.75,NE,45,0.0,1.3,47,0.00,,,0.00,open2300-1.11,2013-06-18 01:37:00,
2013-06-18 04:47:00,78.8,56.8,28.74,NE,45,0.0,2.2,47,0.00,,,0.00,open2300-1.11,2013-06-18 01:47:00,
2013-06-18 04:52:00,78.8,56.8,28.74,NE,45,0.0,0.0,47,0.00,,,0.00,open2300-1.11,2013-06-18 01:52:00,
2013-06-18 05:02:00,78.6,56.6,28.74,NE,45,0.4,1.8,47,0.00,,,0.00,open2300-1.11,2013-06-18 02:02:00,
2013-06-18 05:07:00,78.6,57.2,28.74,NE,45,0.0,1.6,48,0.00,,,0.00,open2300-1.11,2013-06-18 02:07:00,
2013-06-18 05:14:00,78.6,57.2,28.74,NE,45,0.0,0.0,48,0.00,,,0.00,open2300-1.11,2013-06-18 02:14:00,
2013-06-18 05:22:00,78.4,57.1,28.74,NNE,22,5.4,5.4,48,0.00,,,0.00,open2300-1.11,2013-06-18 02:22:00,
2013-06-18 05:32:00,78.4,57.1,28.74,NE,45,0.0,1.3,48,0.00,,,0.00,open2300-1.11,2013-06-18 02:32:00,
2013-06-18 05:37:00,78.3,56.9,28.75,NE,45,0.0,4.5,48,0.00,,,0.00,open2300-1.11,2013-06-18 02:37:00,
2013-06-18 05:42:00,78.1,56.8,28.74,NE,45,0.0,0.0,48,0.00,,,0.00,open2300-1.11,2013-06-18 02:42:00,
2013-06-18 05:52:00,78.1,57.4,28.74,NE,45,2.7,4.5,49,0.00,,,0.00,open2300-1.11,2013-06-18 02:52:00,
2013-06-18 05:57:00,78.1,57.4,28.74,NE,45,0.0,2.7,49,0.00,,,0.00,open2300-1.11,2013-06-18 02:57:00,
2013-06-18 06:07:00,77.9,57.4,28.75,NNE,22,0.0,2.9,49,0.00,,,0.00,open2300-1.11,2013-06-18 03:07:00,
2013-06-18 06:12:00,77.9,57.2,28.74,NE,45,3.1,3.1,49,0.00,,,0.00,open2300-1.11,2013-06-18 03:12:00,
2013-06-18 06:22:00,77.9,57.2,28.75,ENE,67,1.6,5.1,49,0.00,,,0.00,open2300-1.11,2013-06-18 03:22:00,
2013-06-18 06:27:00,77.7,57.1,28.75,NE,45,0.9,1.6,49,0.00,,,0.00,open2300-1.11,2013-06-18 03:27:00,
2013-06-18 06:37:00,77.9,57.8,28.75,NNE,22,4.5,4.5,50,0.00,,,0.00,open2300-1.11,2013-06-18 03:37:00,
2013-06-18 06:42:00,77.7,57.7,28.75,NE,45,0.0,4.5,50,0.00,,,0.00,open2300-1.11,2013-06-18 03:42:00,
2013-06-18 06:52:00,77.9,57.8,28.75,NE,45,1.8,3.1,50,0.00,,,0.00,open2300-1.11,2013-06-18 03:52:00,
2013-06-18 06:57:00,77.9,57.8,28.75,NE,45,0.0,1.8,50,0.00,,,0.00,open2300-1.11,2013-06-18 03:57:00,
2013-06-18 07:02:00,77.9,57.8,28.75,NE,45,1.6,2.2,50,0.00,,,0.00,open2300-1.11,2013-06-18 04:02:00,
2013-06-18 07:07:00,78.1,58.0,28.75,NE,45,5.4,5.4,50,0.00,,,0.00,open2300-1.11,2013-06-18 04:07:00,
2013-06-18 07:12:00,78.1,58.0,28.75,NE,45,0.0,5.4,50,0.00,,,0.00,open2300-1.11,2013-06-18 04:12:00,
2013-06-18 07:17:00,78.1,58.0,28.76,NE,45,0.0,2.7,50,0.00,,,0.00,open2300-1.11,2013-06-18 04:17:00,
2013-06-18 07:22:00,78.1,58.0,28.76,NE,45,0.0,2.7,50,0.00,,,0.00,open2300-1.11,2013-06-18 04:22:00,
2013-06-18 07:27:00,78.1,58.0,28.76,NNE,22,4.5,4.5,50,0.00,,,0.00,open2300-1.11,2013-06-18 04:27:00,
2013-06-18 07:32:00,78.1,58.5,28.76,NE,45,1.6,4.5,51,0.00,,,0.00,open2300-1.11,2013-06-18 04:32:00,
2013-06-18 07:37:00,78.1,58.5,28.76,NE,45,0.0,1.6,51,0.00,,,0.00,open2300-1.11,2013-06-18 04:37:00,
2013-06-18 07:47:00,78.3,58.7,28.76,NE,45,0.0,0.2,51,0.00,,,0.00,open2300-1.11,2013-06-18 04:47:00,
2013-06-18 07:57:00,78.4,58.8,28.76,NE,45,2.2,2.2,51,0.00,,,0.00,open2300-1.11,2013-06-18 04:57:00,
2013-06-18 08:02:00,78.6,59.0,28.77,NE,45,2.9,2.9,51,0.00,,,0.00,open2300-1.11,2013-06-18 05:02:00,
2013-06-18 08:12:00,78.8,58.6,28.77,NE,45,0.0,0.0,50,0.00,,,0.00,open2300-1.11,2013-06-18 05:12:00,
2013-06-18 08:22:00,79.2,59.0,28.77,NNE,22,4.5,4.5,50,0.00,,,0.00,open2300-1.11,2013-06-18 05:22:00,
2013-06-18 08:32:00,79.3,59.1,28.77,NE,45,1.1,3.8,50,0.00,,,0.00,open2300-1.11,2013-06-18 05:32:00,
2013-06-18 08:37:00,79.5,59.3,28.77,NE,45,0.0,1.1,50,0.00,,,0.00,open2300-1.11,2013-06-18 05:37:00,
2013-06-18 08:42:00,79.5,59.3,28.77,NE,45,0.0,0.0,50,0.00,,,0.00,open2300-1.11,2013-06-18 05:42:00,
2013-06-18 08:47:00,79.7,59.5,28.77,NE,45,3.1,3.6,50,0.00,,,0.00,open2300-1.11,2013-06-18 05:47:00,
2013-06-18 08:52:00,79.9,59.6,28.77,NNE,22,0.0,3.1,50,0.00,,,0.00,open2300-1.11,2013-06-18 05:52:00,
2013-06-18 08:58:00,80.1,59.8,28.77,NE,45,0.0,0.0,50,0.00,,,0.00,open2300-1.11,2013-06-18 05:58:00,
2013-06-18 09:07:00,80.4,59.5,28.77,NE,45,0.0,0.9,49,0.00,,,0.00,open2300-1.11,2013-06-18 06:07:00,
2013-06-18 09:17:00,80.6,59.7,28.77,NE,45,0.0,0.0,49,0.00,,,0.00,open2300-1.11,2013-06-18 06:17:00,
2013-06-18 09:22:00,80.8,59.8,28.77,NE,45,0.0,0.0,49,0.00,,,0.00,open2300-1.11,2013-06-18 06:22:00,
2013-06-18 09:27:00,81.0,60.0,28.77,NE,45,0.0,0.0,49,0.00,,,0.00,open2300-1.11,2013-06-18 06:27:00,
2013-06-18 09:37:00,81.3,60.3,28.77,NNE,22,0.0,0.0,49,0.00,,,0.00,open2300-1.11,2013-06-18 06:37:00,
2013-06-18 09:49:00,81.7,60.0,28.77,NE,45,0.0,5.4,48,0.00,,,0.00,open2300-1.11,2013-06-18 06:49:00,
2013-06-18 09:57:00,81.7,60.0,28.77,NNE,22,0.0,0.0,48,0.00,,,0.00,open2300-1.11,2013-06-18 06:57:00,
2013-06-18 10:07:00,82.2,59.9,28.77,NE,45,8.3,8.3,47,0.00,,,0.00,open2300-1.11,2013-06-18 07:07:00,
2013-06-18 10:12:00,82.2,59.9,28.77,NE,45,6.0,8.3,47,0.00,,,0.00,open2300-1.11,2013-06-18 07:12:00,
2013-06-18 10:17:00,82.2,59.9,28.77,NE,45,1.3,6.0,47,0.00,,,0.00,open2300-1.11,2013-06-18 07:17:00,
2013-06-18 10:22:00,82.6,60.2,28.77,NE,45,0.0,1.3,47,0.00,,,0.00,open2300-1.11,2013-06-18 07:22:00,
2013-06-18 10:32:00,82.8,59.8,28.77,NE,45,3.1,4.7,46,0.00,,,0.00,open2300-1.11,2013-06-18 07:32:00,
2013-06-18 10:37:00,82.9,59.9,28.77,NE,45,13.0,13.0,46,0.00,,,0.00,open2300-1.11,2013-06-18 07:37:00,
2013-06-18 10:42:00,82.9,59.9,28.77,NNE,22,0.0,13.0,46,0.00,,,0.00,open2300-1.11,2013-06-18 07:42:00,
2013-06-18 10:47:00,83.1,59.5,28.77,ENE,67,0.0,8.3,45,0.00,,,0.00,open2300-1.11,2013-06-18 07:47:00,
2013-06-18 10:57:00,83.1,59.5,28.77,NNE,22,0.0,2.0,45,0.00,,,0.00,open2300-1.11,2013-06-18 07:57:00,
2013-06-18 11:02:00,83.5,59.8,28.78,NE,45,4.9,5.6,45,0.00,,,0.00,open2300-1.11,2013-06-18 08:02:00,
2013-06-18 11:07:00,83.3,59.7,28.77,NNE,22,6.0,6.0,45,0.00,,,0.00,open2300-1.11,2013-06-18 08:07:00,
2013-06-18 11:17:00,83.5,59.8,28.77,NE,45,5.6,5.6,45,0.00,,,0.00,open2300-1.11,2013-06-18 08:17:00,
2013-06-18 11:22:00,83.5,59.2,28.77,NE,45,1.1,5.6,44,0.00,,,0.00,open2300-1.11,2013-06-18 08:22:00,
2013-06-18 11:27:00,83.5,59.2,28.77,NE,45,4.2,4.2,44,0.00,,,0.00,open2300-1.11,2013-06-18 08:27:00,
2013-06-18 11:34:00,83.7,60.0,28.78,NE,45,0.0,9.8,45,0.00,,,0.00,open2300-1.11,2013-06-18 08:34:00,
2013-06-18 11:42:00,83.8,59.6,28.78,NNE,22,0.0,3.8,44,0.00,,,0.00,open2300-1.11,2013-06-18 08:42:00,
2013-06-18 11:47:00,83.8,59.6,28.78,NE,45,2.7,7.2,44,0.00,,,0.00,open2300-1.11,2013-06-18 08:47:00,
2013-06-18 11:52:00,84.0,59.7,28.78,NE,45,4.9,4.9,44,0.00,,,0.00,open2300-1.11,2013-06-18 08:52:00,
2013-06-18 11:57:00,84.0,59.1,28.78,NE,45,3.6,4.9,43,0.00,,,0.00,open2300-1.11,2013-06-18 08:57:00,
2013-06-18 12:07:00,84.2,59.3,28.77,NE,45,4.0,7.4,43,0.00,,,0.00,open2300-1.11,2013-06-18 09:07:00,
2013-06-18 12:12:00,84.4,59.4,28.77,NNE,22,4.7,6.9,43,0.00,,,0.00,open2300-1.11,2013-06-18 09:12:00,
2013-06-18 12:17:00,84.4,59.4,28.77,NE,45,0.0,4.7,43,0.00,,,0.00,open2300-1.11,2013-06-18 09:17:00,
2013-06-18 12:27:00,84.7,59.8,28.77,NE,45,2.7,2.7,43,0.00,,,0.00,open2300-1.11,2013-06-18 09:27:00,
2013-06-18 12:32:00,84.7,59.8,28.77,NE,45,3.1,3.1,43,0.00,,,0.00,open2300-1.11,2013-06-18 09:32:00,
2013-06-18 12:37:00,84.7,59.1,28.78,NE,45,0.0,9.6,42,0.00,,,0.00,open2300-1.11,2013-06-18 09:37:00,
2013-06-18 12:42:00,84.9,58.0,28.77,NNE,22,5.6,7.6,40,0.00,,,0.00,open2300-1.11,2013-06-18 09:42:00,
2013-06-18 12:52:00,84.9,58.7,28.78,NE,45,4.0,7.2,41,0.00,,,0.00,open2300-1.11,2013-06-18 09:52:00,
2013-06-18 12:57:00,85.1,58.2,28.78,NE,45,0.0,8.3,40,0.00,,,0.00,open2300-1.11,2013-06-18 09:57:00,
2013-06-18 13:02:00,85.1,58.2,28.78,NE,45,0.0,1.3,40,0.00,,,0.00,open2300-1.11,2013-06-18 10:02:00,
2013-06-18 13:07:00,85.3,58.3,28.77,NNE,22,5.1,5.1,40,0.00,,,0.00,open2300-1.11,2013-06-18 10:07:00,
2013-06-18 13:17:00,85.3,58.3,28.78,NNE,22,1.6,3.8,40,0.00,,,0.00,open2300-1.11,2013-06-18 10:17:00,
2013-06-18 13:22:00,85.5,58.5,28.78,NE,45,4.2,4.2,40,0.00,,,0.00,open2300-1.11,2013-06-18 10:22:00,
2013-06-18 13:32:00,85.6,57.9,28.77,SSE,157,0.0,0.0,39,0.00,,,0.00,open2300-1.11,2013-06-18 10:32:00,
2013-06-18 13:38:00,85.8,58.0,28.77,NE,45,4.9,6.0,39,0.00,,,0.00,open2300-1.11,2013-06-18 10:38:00,
2013-06-18 13:47:00,86.2,57.6,28.77,NE,45,0.0,5.4,38,0.00,,,0.00,open2300-1.11,2013-06-18 10:47:00,
2013-06-18 13:52:00,86.2,57.6,28.77,NNE,22,7.2,7.2,38,0.00,,,0.00,open2300-1.11,2013-06-18 10:52:00,
2013-06-18 13:57:00,86.2,57.6,28.77,NE,45,4.0,7.2,38,0.00,,,0.00,open2300-1.11,2013-06-18 10:57:00,
2013-06-18 14:07:00,86.4,57.7,28.77,ENE,67,0.0,6.9,38,0.00,,,0.00,open2300-1.11,2013-06-18 11:07:00,
2013-06-18 14:13:00,86.4,56.9,28.77,NNE,22,0.0,0.0,37,0.00,,,0.00,open2300-1.11,2013-06-18 11:13:00,
2013-06-18 14:22:00,87.1,57.6,28.76,NNE,22,1.6,4.2,37,0.00,,,0.00,open2300-1.11,2013-06-18 11:22:00,
2013-06-18 14:27:00,87.4,57.1,28.77,NNE,22,2.7,4.2,36,0.00,,,0.00,open2300-1.11,2013-06-18 11:27:00,
2013-06-18 14:37:00,87.6,57.2,28.77,NE,45,2.2,8.7,36,0.00,,,0.00,open2300-1.11,2013-06-18 11:37:00,
2013-06-18 14:42:00,87.6,57.2,28.76,NNE,22,5.6,8.9,36,0.00,,,0.00,open2300-1.11,2013-06-18 11:42:00,
2013-06-18 14:52:00,88.0,57.5,28.77,NNE,22,4.9,4.9,36,0.00,,,0.00,open2300-1.11,2013-06-18 11:52:00,
2013-06-18 14:57:00,88.2,56.9,28.77,NNE,22,12.8,12.8,35,0.00,,,0.00,open2300-1.11,2013-06-18 11:57:00,
2013-06-18 15:02:00,88.3,57.0,28.76,NNE,22,7.2,12.8,35,0.00,,,0.00,open2300-1.11,2013-06-18 12:02:00,
2013-06-18 15:07:00,88.5,57.2,28.76,ENE,67,0.0,7.2,35,0.00,,,0.00,open2300-1.11,2013-06-18 12:07:00,
2013-06-18 15:12:00,88.5,56.4,28.76,NE,45,4.2,4.2,34,0.00,,,0.00,open2300-1.11,2013-06-18 12:12:00,
2013-06-18 15:17:00,88.5,56.4,28.76,NE,45,5.1,5.6,34,0.00,,,0.00,open2300-1.11,2013-06-18 12:17:00,
2013-06-18 15:27:00,88.5,57.2,28.77,NNE,22,4.9,4.9,35,0.00,,,0.00,open2300-1.11,2013-06-18 12:27:00,
2013-06-18 15:37:00,88.9,56.7,28.76,NE,45,3.8,5.4,34,0.00,,,0.00,open2300-1.11,2013-06-18 12:37:00,
2013-06-18 15:42:00,88.7,57.3,28.76,NNE,22,1.1,3.8,35,0.00,,,0.00,open2300-1.11,2013-06-18 12:42:00,
2013-06-18 15:47:00,88.9,57.5,28.77,NE,45,4.7,4.7,35,0.00,,,0.00,open2300-1.11,2013-06-18 12:47:00,
2013-06-18 15:52:00,88.9,56.7,28.76,NE,45,4.0,6.3,34,0.00,,,0.00,open2300-1.11,2013-06-18 12:52:00,
2013-06-18 16:02:00,89.1,56.8,28.76,NNE,22,0.0,11.0,34,0.00,,,0.00,open2300-1.11,2013-06-18 13:02:00,
2013-06-18 16:07:00,89.2,57.0,28.76,NNE,22,1.6,15.7,34,0.00,,,0.00,open2300-1.11,2013-06-18 13:07:00,
2013-06-18 16:17:00,89.2,57.0,28.76,NE,45,1.3,6.5,34,0.00,,,0.00,open2300-1.11,2013-06-18 13:17:00,
2013-06-18 16:22:00,89.4,57.2,28.76,NE,45,2.0,2.0,34,0.00,,,0.00,open2300-1.11,2013-06-18 13:22:00,
2013-06-18 16:27:00,89.6,57.3,28.76,NNE,22,0.0,16.5,34,0.00,,,0.00,open2300-1.11,2013-06-18 13:27:00,
2013-06-18 16:32:00,89.8,57.5,28.76,NNE,22,3.8,3.8,34,0.00,,,0.00,open2300-1.11,2013-06-18 13:32:00,
2013-06-18 16:37:00,89.4,57.2,28.76,NE,45,0.0,6.7,34,0.00,,,0.00,open2300-1.11,2013-06-18 13:37:00,
2013-06-18 16:42:00,89.8,57.5,28.76,NNE,22,0.0,3.1,34,0.00,,,0.00,open2300-1.11,2013-06-18 13:42:00,
2013-06-18 16:47:00,89.8,57.5,28.76,NE,45,5.6,5.6,34,0.00,,,0.00,open2300-1.11,2013-06-18 13:47:00,
2013-06-18 16:52:00,89.8,57.5,28.76,NNE,22,3.6,5.6,34,0.00,,,0.00,open2300-1.11,2013-06-18 13:52:00,
2013-06-18 17:03:00,90.0,57.6,28.76,NNE,22,15.0,15.0,34,0.00,,,0.00,open2300-1.11,2013-06-18 14:03:00,
2013-06-18 17:12:00,90.7,58.3,28.76,NNE,22,2.9,4.5,34,0.00,,,0.00,open2300-1.11,2013-06-18 14:12:00,
2013-06-18 17:17:00,90.7,58.3,28.75,NNE,22,0.0,2.9,34,0.00,,,0.00,open2300-1.11,2013-06-18 14:17:00,
2013-06-18 17:27:00,91.8,59.2,28.76,NNE,22,0.0,2.5,34,0.00,,,0.00,open2300-1.11,2013-06-18 14:27:00,
2013-06-18 17:33:00,91.9,59.4,28.75,NE,45,1.1,6.0,34,0.00,,,0.00,open2300-1.11,2013-06-18 14:33:00,
2013-06-18 17:42:00,93.0,60.3,28.75,NE,45,6.7,17.5,34,0.00,,,0.00,open2300-1.11,2013-06-18 14:42:00,
2013-06-18 17:52:00,93.6,60.0,28.75,NE,45,18.1,18.1,33,0.00,,,0.00,open2300-1.11,2013-06-18 14:52:00,
2013-06-18 17:57:00,93.7,60.1,28.75,NE,45,12.5,18.1,33,0.00,,,0.00,open2300-1.11,2013-06-18 14:57:00,
2013-06-18 18:02:00,93.4,59.8,28.75,NE,45,0.9,12.5,33,0.00,,,0.00,open2300-1.11,2013-06-18 15:02:00,
2013-06-18 18:12:00,92.5,59.0,28.74,NE,45,18.6,19.9,33,0.00,,,0.00,open2300-1.11,2013-06-18 15:12:00,
2013-06-18 18:22:00,92.3,58.9,28.74,NE,45,0.0,0.0,33,0.00,,,0.00,open2300-1.11,2013-06-18 15:22:00,
2013-06-18 18:27:00,92.5,59.0,28.75,NE,45,8.1,8.1,33,0.00,,,0.00,open2300-1.11,2013-06-18 15:27:00,
2013-06-18 18:37:00,91.8,58.4,28.75,NE,45,0.0,4.7,33,0.00,,,0.00,open2300-1.11,2013-06-18 15:37:00,
2013-06-18 18:42:00,91.2,58.8,28.75,NE,45,15.0,15.0,34,0.00,,,0.00,open2300-1.11,2013-06-18 15:42:00,
2013-06-18 18:52:00,90.5,58.1,28.75,NE,45,0.0,7.4,34,0.00,,,0.00,open2300-1.11,2013-06-18 15:52:00,
2013-06-18 18:57:00,90.3,58.0,28.75,NE,45,0.0,6.0,34,0.00,,,0.00,open2300-1.11,2013-06-18 15:57:00,
2013-06-18 19:02:00,90.1,57.8,28.75,NE,45,0.0,6.7,34,0.00,,,0.00,open2300-1.11,2013-06-18 16:02:00,
2013-06-18 19:07:00,89.8,58.3,28.75,NNE,22,0.0,2.9,35,0.00,,,0.00,open2300-1.11,2013-06-18 16:07:00,
2013-06-18 19:12:00,90.0,58.4,28.75,NNE,22,16.8,16.8,35,0.00,,,0.00,open2300-1.11,2013-06-18 16:12:00,
2013-06-18 19:22:00,89.6,58.1,28.75,NE,45,11.9,11.9,35,0.00,,,0.00,open2300-1.11,2013-06-18 16:22:00,
2013-06-18 19:27:00,89.4,57.9,28.75,NNE,22,3.1,20.6,35,0.00,,,0.00,open2300-1.11,2013-06-18 16:27:00,
2013-06-18 19:32:00,89.1,58.4,28.75,NE,45,1.8,5.8,36,0.00,,,0.00,open2300-1.11,2013-06-18 16:32:00,
2013-06-18 19:42:00,88.3,57.8,28.75,NE,45,2.2,2.2,36,0.00,,,0.00,open2300-1.11,2013-06-18 16:42:00,
2013-06-18 19:47:00,88.0,58.3,28.75,NNE,22,0.0,2.2,37,0.00,,,0.00,open2300-1.11,2013-06-18 16:47:00,
2013-06-18 19:52:00,87.4,57.9,28.75,NE,45,5.1,5.1,37,0.00,,,0.00,open2300-1.11,2013-06-18 16:52:00,
2013-06-18 20:02:00,86.4,57.7,28.75,NE,45,0.0,2.0,38,0.00,,,0.00,open2300-1.11,2013-06-18 17:02:00,
2013-06-18 20:08:00,86.2,58.3,28.75,NNE,22,0.0,2.7,39,0.00,,,0.00,open2300-1.11,2013-06-18 17:08:00,
2013-06-18 20:17:00,85.5,57.7,28.75,NE,45,0.0,2.0,39,0.00,,,0.00,open2300-1.11,2013-06-18 17:17:00,
2013-06-18 20:27:00,84.9,58.0,28.75,NE,45,0.0,4.0,40,0.00,,,0.00,open2300-1.11,2013-06-18 17:27:00,
2013-06-18 20:32:00,84.7,57.9,28.75,NE,45,1.3,1.3,40,0.00,,,0.00,open2300-1.11,2013-06-18 17:32:00,
2013-06-18 20:42:00,84.0,58.5,28.75,NNE,22,15.4,15.4,42,0.00,,,0.00,open2300-1.11,2013-06-18 17:42:00,
2013-06-18 20:52:00,83.5,58.6,28.75,NNE,22,4.5,4.5,43,0.00,,,0.00,open2300-1.11,2013-06-18 17:52:00,
2013-06-18 20:57:00,83.3,58.4,28.75,NE,45,1.8,4.5,43,0.00,,,0.00,open2300-1.11,2013-06-18 17:57:00,
2013-06-18 21:02:00,83.1,59.0,28.75,NE,45,0.0,3.8,44,0.00,,,0.00,open2300-1.11,2013-06-18 18:02:00,
2013-06-18 21:07:00,82.9,58.7,28.74,NE,45,0.7,2.9,44,0.00,,,0.00,open2300-1.11,2013-06-18 18:07:00,
2013-06-18 21:13:00,82.9,58.7,28.75,NNE,22,3.4,3.4,44,0.00,,,0.00,open2300-1.11,2013-06-18 18:13:00,
2013-06-18 21:22:00,82.6,59.0,28.75,NE,45,0.0,0.0,45,0.00,,,0.00,open2300-1.11,2013-06-18 18:22:00,
2013-06-18 21:27:00,82.6,59.0,28.75,NNE,22,0.0,0.0,45,0.00,,,0.00,open2300-1.11,2013-06-18 18:27:00,
2013-06-18 21:32:00,82.2,58.7,28.75,NE,45,0.0,2.2,45,0.00,,,0.00,open2300-1.11,2013-06-18 18:32:00,
2013-06-18 21:37:00,82.2,59.3,28.75,NNE,22,3.4,3.4,46,0.00,,,0.00,open2300-1.11,2013-06-18 18:37:00,
2013-06-18 21:42:00,82.2,59.3,28.75,NE,45,0.0,3.4,46,0.00,,,0.00,open2300-1.11,2013-06-18 18:42:00,
2013-06-18 21:52:00,82.0,59.1,28.75,NE,45,4.7,4.7,46,0.00,,,0.00,open2300-1.11,2013-06-18 18:52:00,
2013-06-18 21:57:00,82.0,59.1,28.75,NE,45,0.0,4.7,46,0.00,,,0.00,open2300-1.11,2013-06-18 18:57:00,
2013-06-18 22:08:00,81.7,59.4,28.76,NE,45,1.8,3.1,47,0.00,,,0.00,open2300-1.11,2013-06-18 19:08:00,
2013-06-18 22:17:00,81.7,59.4,28.76,NNE,22,0.0,3.8,47,0.00,,,0.00,open2300-1.11,2013-06-18 19:17:00,
2013-06-18 22:22:00,81.5,59.2,28.76,NNE,22,1.8,1.8,47,0.00,,,0.00,open2300-1.11,2013-06-18 19:22:00,
2013-06-18 22:32:00,81.5,59.2,28.76,NE,45,3.1,6.7,47,0.00,,,0.00,open2300-1.11,2013-06-18 19:32:00,
2013-06-18 22:37:00,81.3,59.1,28.76,NE,45,0.0,3.1,47,0.00,,,0.00,open2300-1.11,2013-06-18 19:37:00,
2013-06-18 22:47:00,81.3,59.1,28.76,NE,45,1.1,6.3,47,0.00,,,0.00,open2300-1.11,2013-06-18 19:47:00,
2013-06-18 22:52:00,81.1,59.5,28.76,NE,45,0.0,1.1,48,0.00,,,0.00,open2300-1.11,2013-06-18 19:52:00,
2013-06-18 22:57:00,81.1,58.9,28.76,NNE,22,0.0,0.0,47,0.00,,,0.00,open2300-1.11,2013-06-18 19:57:00,
2013-06-18 23:04:00,81.1,59.5,28.76,NE,45,0.0,4.2,48,0.00,,,0.00,open2300-1.11,2013-06-18 20:04:00,
2013-06-18 23:12:00,81.1,59.5,28.76,NNE,22,0.0,0.0,48,0.00,,,0.00,open2300-1.11,2013-06-18 20:12:00,
2013-06-18 23:22:00,81.0,59.4,28.76,NNE,22,0.0,0.0,48,0.00,,,0.00,open2300-1.11,2013-06-18 20:22:00,
2013-06-18 23:27:00,81.0,59.4,28.75,NE,45,0.0,5.6,48,0.00,,,0.00,open2300-1.11,2013-06-18 20:27:00,
2013-06-18 23:37:00,80.8,59.2,28.75,NE,45,1.3,6.9,48,0.00,,,0.00,open2300-1.11,2013-06-18 20:37:00,
2013-06-18 23:42:00,80.8,58.6,28.75,NNE,22,0.0,1.3,47,0.00,,,0.00,open2300-1.11,2013-06-18 20:42:00,
2013-06-18 23:47:00,80.8,59.2,28.75,ENE,67,6.0,6.0,48,0.00,,,0.00,open2300-1.11,2013-06-18 20:47:00,
2013-06-18 23:53:00,80.8,58.6,28.75,NE,45,1.6,6.0,47,0.00,,,0.00,open2300-1.11,2013-06-18 20:53:00,